Time;durP1;ratioP1;P1;durP2;ratioP2;P2;SDS_P1;SDS_P2;PMS_P1;PMS_P2;Temp;Humidity;BMP_temperature;BMP_pressure;BME280_temperature;BME280_humidity;BME280_pressure;Samples;Min_cycle;Max_cycle;Signal;HPM_P1;HPM_P2
2022/05/07 00:00:58;;;;;;;31.00;27.17;;;11.80;99.90;;;;;;5083003;28;20020;-82
2022/05/07 00:03:24;;;;;;;30.92;27.63;;;11.80;99.90;;;;;;5091375;28;20463;-81
2022/05/07 00:05:50;;;;;;;33.35;27.95;;;11.80;99.90;;;;;;5089646;28;20024;-81
2022/05/07 00:08:15;;;;;;;34.97;29.40;;;11.80;99.90;;;;;;5091135;28;20453;-81
2022/05/07 00:10:43;;;;;;;33.88;27.17;;;11.80;99.90;;;;;;5091600;28;20485;-81
2022/05/07 00:13:09;;;;;;;30.63;27.40;;;11.80;99.90;;;;;;5073627;28;20047;-81
2022/05/07 00:15:37;;;;;;;32.45;28.23;;;11.70;99.90;;;;;;5075443;28;20532;-81
2022/05/07 00:18:05;;;;;;;32.95;27.65;;;11.80;99.90;;;;;;5072139;28;20103;-81
2022/05/07 00:20:32;;;;;;;32.40;28.65;;;11.70;99.90;;;;;;5070252;28;20473;-81
2022/05/07 00:22:58;;;;;;;33.47;28.75;;;11.80;99.90;;;;;;5053510;28;20389;-81
2022/05/07 00:25:25;;;;;;;35.15;29.88;;;11.70;99.90;;;;;;5081263;28;20028;-80
2022/05/07 00:27:50;;;;;;;34.58;30.25;;;11.70;99.90;;;;;;5095146;28;20491;-81
2022/05/07 00:30:16;;;;;;;34.05;30.45;;;11.70;99.90;;;;;;5077253;28;20111;-81
2022/05/07 00:32:42;;;;;;;35.65;30.92;;;11.70;99.90;;;;;;5095853;28;20088;-80
2022/05/07 00:35:10;;;;;;;35.90;30.45;;;11.70;99.90;;;;;;5095899;28;20085;-81
2022/05/07 00:37:36;;;;;;;37.42;31.10;;;11.70;99.90;;;;;;5096012;28;20042;-81
2022/05/07 00:40:05;;;;;;;34.35;30.60;;;11.70;99.90;;;;;;5095769;28;20028;-81
2022/05/07 00:42:31;;;;;;;34.42;30.55;;;11.70;99.90;;;;;;5094181;28;20366;-80
2022/05/07 00:44:56;;;;;;;35.40;30.73;;;11.70;99.90;;;;;;5095778;28;20031;-81
2022/05/07 00:47:27;;;;;;;36.00;31.75;;;11.70;99.90;;;;;;5095801;28;20070;-81
2022/05/07 00:49:56;;;;;;;36.25;31.73;;;11.70;99.90;;;;;;5095754;28;20107;-81
2022/05/07 00:52:22;;;;;;;36.80;31.50;;;11.70;99.90;;;;;;5095289;28;20025;-81
2022/05/07 00:54:48;;;;;;;35.38;31.60;;;11.70;99.90;;;;;;5095412;28;20027;-81
2022/05/07 00:57:15;;;;;;;37.78;32.53;;;11.60;99.90;;;;;;5077210;28;20107;-81
2022/05/07 00:59:41;;;;;;;38.58;32.30;;;11.60;99.90;;;;;;5095205;28;20488;-81
2022/05/07 01:02:07;;;;;;;37.03;32.35;;;11.60;99.90;;;;;;5095821;28;20016;-81
2022/05/07 01:04:33;;;;;;;37.53;33.35;;;11.60;99.90;;;;;;5095260;28;20414;-81
2022/05/07 01:07:02;;;;;;;38.65;31.73;;;11.60;99.90;;;;;;5095258;28;20028;-81
2022/05/07 01:09:27;;;;;;;38.55;32.97;;;11.60;99.90;;;;;;5095447;28;20357;-81
2022/05/07 01:11:54;;;;;;;38.83;32.35;;;11.60;99.90;;;;;;5095161;28;20020;-81
2022/05/07 01:14:20;;;;;;;39.28;32.75;;;11.60;99.90;;;;;;5094892;28;20449;-81
2022/05/07 01:16:45;;;;;;;41.72;34.08;;;11.60;99.90;;;;;;5095111;28;20209;-81
2022/05/07 01:19:11;;;;;;;39.60;33.70;;;11.60;99.90;;;;;;5094489;28;20044;-81
2022/05/07 01:21:36;;;;;;;38.95;33.67;;;11.60;99.90;;;;;;5094789;28;20381;-81
2022/05/07 01:24:02;;;;;;;36.47;32.25;;;11.60;99.90;;;;;;5094425;28;20024;-81
2022/05/07 01:26:28;;;;;;;38.00;34.00;;;11.60;99.90;;;;;;5094231;28;20020;-81
2022/05/07 01:29:07;;;;;;;36.90;32.47;;;11.60;99.90;;;;;;5094673;28;20031;-81
2022/05/07 01:31:33;;;;;;;40.40;35.20;;;11.60;99.90;;;;;;5094735;28;20024;-81
2022/05/07 01:33:58;;;;;;;41.30;36.33;;;11.60;99.90;;;;;;5094703;28;20031;-81
2022/05/07 01:36:24;;;;;;;40.33;34.55;;;11.60;99.90;;;;;;5095007;28;20030;-81
2022/05/07 01:38:49;;;;;;;40.78;36.03;;;11.50;99.90;;;;;;5093718;28;20427;-81
2022/05/07 01:41:15;;;;;;;40.80;35.10;;;11.50;99.90;;;;;;5076085;28;20024;-81
2022/05/07 01:43:41;;;;;;;41.33;35.72;;;11.50;99.90;;;;;;5094535;28;20074;-81
2022/05/07 01:48:51;;;;;;;40.03;35.58;;;11.50;99.90;;;;;;5094203;28;20104;-81
2022/05/07 01:51:16;;;;;;;40.75;36.10;;;11.50;99.90;;;;;;5093785;28;20024;-81
2022/05/07 01:53:42;;;;;;;40.50;35.55;;;11.50;99.90;;;;;;5093737;28;20069;-81
2022/05/07 01:56:07;;;;;;;42.05;36.40;;;11.50;99.90;;;;;;5091251;28;20081;-81
2022/05/07 01:58:33;;;;;;;42.47;36.60;;;11.50;99.90;;;;;;5093676;28;20027;-81
2022/05/07 02:00:58;;;;;;;44.75;36.60;;;11.50;99.90;;;;;;5094474;28;20035;-81
2022/05/07 02:03:24;;;;;;;45.35;38.30;;;11.50;99.90;;;;;;5093944;28;20051;-81
2022/05/07 02:05:49;;;;;;;42.70;36.97;;;11.50;99.90;;;;;;5093323;28;20033;-81
2022/05/07 02:08:16;;;;;;;45.63;38.33;;;11.50;99.90;;;;;;5093141;28;20024;-81
2022/05/07 02:10:41;;;;;;;46.83;39.05;;;11.50;99.90;;;;;;5093344;28;20032;-81
2022/05/07 02:13:07;;;;;;;44.65;38.30;;;11.50;99.90;;;;;;5093744;28;20374;-81
2022/05/07 02:15:33;;;;;;;44.15;37.92;;;11.50;99.90;;;;;;5094160;28;20123;-80
2022/05/07 02:17:58;;;;;;;44.83;37.05;;;11.50;99.90;;;;;;5075989;28;20468;-81
2022/05/07 02:20:25;;;;;;;43.95;36.55;;;11.50;99.90;;;;;;5094126;28;20055;-81
2022/05/07 02:22:55;;;;;;;43.25;37.70;;;11.50;99.90;;;;;;5076068;28;20039;-81
2022/05/07 02:25:23;;;;;;;42.97;37.85;;;11.50;99.90;;;;;;5094110;28;20021;-81
2022/05/07 02:27:49;;;;;;;45.63;38.92;;;11.40;99.90;;;;;;5093574;28;20402;-81
2022/05/07 02:30:15;;;;;;;46.75;39.10;;;11.50;99.90;;;;;;5093757;28;20093;-81
2022/05/07 02:32:41;;;;;;;44.92;38.35;;;11.40;99.90;;;;;;5093484;28;20464;-81
2022/05/07 02:35:07;;;;;;;47.35;39.63;;;11.40;99.90;;;;;;5093140;28;20110;-81
2022/05/07 02:37:32;;;;;;;47.35;38.67;;;11.40;99.90;;;;;;5093239;28;20487;-81
2022/05/07 02:39:58;;;;;;;46.83;39.92;;;11.40;99.90;;;;;;5075131;28;20085;-81
2022/05/07 02:42:33;;;;;;;49.15;39.53;;;11.40;99.90;;;;;;5093246;28;20031;-81
2022/05/07 02:44:59;;;;;;;47.53;39.00;;;11.40;99.90;;;;;;5093079;28;20048;-81
2022/05/07 02:47:24;;;;;;;46.60;39.13;;;11.40;99.90;;;;;;5092777;28;20086;-82
2022/05/07 02:49:51;;;;;;;46.58;39.13;;;11.40;99.90;;;;;;5093098;28;20022;-81
2022/05/07 02:52:16;;;;;;;47.58;38.97;;;11.40;99.90;;;;;;5091846;28;20020;-81
2022/05/07 02:54:42;;;;;;;48.45;40.00;;;11.40;99.90;;;;;;5072335;28;20043;-81
2022/05/07 02:57:08;;;;;;;45.03;39.45;;;11.40;99.90;;;;;;5054582;28;20033;-81
2022/05/07 02:59:33;;;;;;;49.30;41.15;;;11.40;99.90;;;;;;5072599;28;20469;-81
2022/05/07 03:02:00;;;;;;;46.83;40.45;;;11.40;99.90;;;;;;5072468;28;20116;-81
2022/05/07 03:04:26;;;;;;;50.53;41.05;;;11.40;99.90;;;;;;5054881;28;20103;-81
2022/05/07 03:06:52;;;;;;;52.95;40.92;;;11.40;99.90;;;;;;5073545;28;20021;-82
2022/05/07 03:09:17;;;;;;;48.90;41.63;;;11.40;99.90;;;;;;5091796;28;20444;-81
2022/05/07 03:11:44;;;;;;;50.35;42.45;;;11.40;99.90;;;;;;5093214;28;20050;-81
2022/05/07 03:14:09;;;;;;;48.88;42.15;;;11.40;99.90;;;;;;5093644;28;20024;-81
2022/05/07 03:16:35;;;;;;;52.35;42.95;;;11.30;99.90;;;;;;5093645;28;20103;-81
2022/05/07 03:19:02;;;;;;;52.30;43.28;;;11.30;99.90;;;;;;5093347;28;20485;-81
2022/05/07 03:21:28;;;;;;;54.25;42.35;;;11.30;99.90;;;;;;5092430;28;20095;-81
2022/05/07 03:23:53;;;;;;;52.05;42.13;;;11.40;99.90;;;;;;5093479;28;20024;-81
2022/05/07 03:26:21;;;;;;;50.40;42.17;;;11.40;99.90;;;;;;5093484;28;20035;-81
2022/05/07 03:28:47;;;;;;;53.00;42.53;;;11.40;99.90;;;;;;5093398;28;20035;-81
2022/05/07 03:31:15;;;;;;;51.83;43.13;;;11.40;99.90;;;;;;5093298;28;20531;-81
2022/05/07 03:33:41;;;;;;;52.10;42.50;;;11.40;99.90;;;;;;5093232;28;20094;-81
2022/05/07 03:36:06;;;;;;;53.08;42.20;;;11.40;99.90;;;;;;5092483;28;20385;-81
2022/05/07 03:38:32;;;;;;;50.20;42.13;;;11.40;99.90;;;;;;5090718;28;20535;-81
2022/05/07 03:40:58;;;;;;;55.10;42.42;;;11.40;99.90;;;;;;5074053;28;20110;-81
2022/05/07 03:43:23;;;;;;;52.58;42.90;;;11.40;99.90;;;;;;5091802;28;20020;-81
2022/05/07 03:45:49;;;;;;;51.13;42.47;;;11.40;99.90;;;;;;5092783;28;20221;-81
2022/05/07 03:48:14;;;;;;;55.55;42.45;;;11.40;99.90;;;;;;5093019;28;20093;-81
2022/05/07 03:50:40;;;;;;;54.97;42.67;;;11.40;99.90;;;;;;5074698;28;20039;-82
2022/05/07 03:55:49;;;;;;;51.97;44.00;;;11.50;99.90;;;;;;5086706;28;20047;-81
2022/05/07 03:58:15;;;;;;;52.40;42.80;;;11.50;99.90;;;;;;5073235;28;20029;-84
2022/05/07 04:00:45;;;;;;;53.65;43.03;;;11.50;99.90;;;;;;5054889;28;20357;-84
2022/05/07 04:03:11;;;;;;;54.10;41.90;;;11.50;99.90;;;;;;5073169;28;20062;-84
2022/05/07 04:05:37;;;;;;;52.97;43.30;;;11.50;99.90;;;;;;5073187;28;20017;-84
2022/05/07 04:08:03;;;;;;;52.83;42.70;;;11.50;99.90;;;;;;5073157;28;20801;-84
2022/05/07 04:10:29;;;;;;;50.88;41.83;;;11.50;99.90;;;;;;5072551;28;20507;-81
2022/05/07 04:12:54;;;;;;;49.67;42.35;;;11.50;99.90;;;;;;5071789;28;20132;-81
2022/05/07 04:15:21;;;;;;;50.80;42.50;;;11.50;99.90;;;;;;5077844;28;20036;-81
2022/05/07 04:17:47;;;;;;;53.30;42.28;;;11.50;99.90;;;;;;5091299;28;20031;-81
2022/05/07 04:20:14;;;;;;;53.13;42.80;;;11.50;99.90;;;;;;5091722;28;20144;-81
2022/05/07 04:22:40;;;;;;;51.30;42.13;;;11.50;99.90;;;;;;5091966;28;20504;-81
2022/05/07 04:25:07;;;;;;;51.20;42.58;;;11.50;99.90;;;;;;5091664;28;20045;-81
2022/05/07 04:27:35;;;;;;;53.15;41.05;;;11.60;99.90;;;;;;5091834;28;20058;-81
2022/05/07 04:30:03;;;;;;;53.60;40.75;;;11.60;99.90;;;;;;5073847;28;20020;-81
2022/05/07 04:32:30;;;;;;;52.72;41.55;;;11.60;99.90;;;;;;5073569;28;20024;-81
2022/05/07 04:34:56;;;;;;;53.47;43.03;;;11.60;99.90;;;;;;5089682;28;20020;-81
2022/05/07 04:37:25;;;;;;;56.80;42.45;;;11.60;99.90;;;;;;5087411;28;20028;-81
2022/05/07 04:39:50;;;;;;;55.70;44.22;;;11.60;99.90;;;;;;5084937;28;20029;-81
2022/05/07 04:42:16;;;;;;;54.35;43.40;;;11.60;99.90;;;;;;5069905;28;20031;-81
2022/05/07 04:44:42;;;;;;;56.72;44.70;;;11.60;99.90;;;;;;5085327;28;20020;-81
2022/05/07 04:47:08;;;;;;;54.63;45.42;;;11.60;99.90;;;;;;5088935;28;20021;-81
2022/05/07 04:49:35;;;;;;;53.63;42.92;;;11.60;99.90;;;;;;5089722;28;20024;-81
2022/05/07 04:52:01;;;;;;;55.25;43.40;;;11.60;99.90;;;;;;5088930;28;20012;-81
2022/05/07 04:54:27;;;;;;;52.70;42.30;;;11.60;99.90;;;;;;5091288;28;20067;-81
2022/05/07 04:56:53;;;;;;;60.53;44.13;;;11.60;99.90;;;;;;5072476;28;20476;-81
2022/05/07 04:59:20;;;;;;;56.90;43.67;;;11.60;99.90;;;;;;5085154;28;20107;-81
2022/05/07 05:01:46;;;;;;;57.10;43.00;;;11.70;99.90;;;;;;5083438;28;20375;-81
2022/05/07 05:04:12;;;;;;;55.90;45.15;;;11.70;99.90;;;;;;5088560;28;20066;-81
2022/05/07 05:06:39;;;;;;;57.53;44.70;;;11.70;99.90;;;;;;5085772;28;20129;-80
2022/05/07 05:09:06;;;;;;;56.15;44.60;;;11.70;99.90;;;;;;5086312;28;20104;-83
2022/05/07 05:11:33;;;;;;;60.45;46.03;;;11.70;99.90;;;;;;5084539;28;20032;-83
2022/05/07 05:13:58;;;;;;;60.50;44.85;;;11.60;99.90;;;;;;5088478;28;20020;-83
2022/05/07 05:16:24;;;;;;;57.40;45.28;;;11.70;99.90;;;;;;5079384;28;20479;-83
2022/05/07 05:18:50;;;;;;;60.80;45.90;;;11.70;99.90;;;;;;5086547;28;20583;-83
2022/05/07 05:21:16;;;;;;;64.43;47.15;;;11.70;99.90;;;;;;5086598;28;20028;-83
2022/05/07 05:23:42;;;;;;;61.92;46.80;;;11.70;99.90;;;;;;5088865;28;20039;-83
2022/05/07 05:26:07;;;;;;;64.03;46.38;;;11.70;99.90;;;;;;5087773;28;20012;-83
2022/05/07 05:28:35;;;;;;;66.03;47.78;;;11.70;99.90;;;;;;5076988;28;20773;-83
2022/05/07 05:31:02;;;;;;;66.25;47.85;;;11.70;99.90;;;;;;5095482;28;20024;-83
2022/05/07 05:33:27;;;;;;;67.07;48.95;;;11.70;99.90;;;;;;5085150;28;20035;-83
2022/05/07 05:35:53;;;;;;;68.07;49.05;;;11.70;99.90;;;;;;5095635;28;20020;-83
2022/05/07 05:38:18;;;;;;;72.40;50.58;;;11.80;99.90;;;;;;5095251;28;20373;-83
2022/05/07 05:40:44;;;;;;;69.07;47.47;;;11.80;99.90;;;;;;5090664;28;20020;-83
2022/05/07 05:43:10;;;;;;;63.20;44.63;;;11.80;99.90;;;;;;5088261;28;20016;-83
2022/05/07 05:45:36;;;;;;;68.63;47.75;;;11.80;99.90;;;;;;5086380;28;20036;-83
2022/05/07 05:48:04;;;;;;;74.15;50.92;;;11.80;99.90;;;;;;5073747;28;20024;-83
2022/05/07 05:50:30;;;;;;;65.75;46.35;;;11.90;99.90;;;;;;5091861;28;20020;-84
2022/05/07 05:52:59;;;;;;;67.28;47.10;;;11.90;99.90;;;;;;5087475;28;20084;-84
2022/05/07 05:55:25;;;;;;;68.25;47.58;;;12.00;99.90;;;;;;5088125;28;20069;-79
2022/05/07 05:57:50;;;;;;;62.00;44.53;;;12.00;99.90;;;;;;5069861;28;20036;-79
2022/05/07 06:00:17;;;;;;;65.03;46.20;;;12.00;99.90;;;;;;5085163;28;20029;-79
2022/05/07 06:02:44;;;;;;;63.40;44.97;;;12.00;99.90;;;;;;5076415;28;20069;-78
2022/05/07 06:05:13;;;;;;;58.97;41.58;;;12.10;99.90;;;;;;5083516;28;20492;-78
2022/05/07 06:07:39;;;;;;;54.15;42.22;;;12.10;99.90;;;;;;5090990;28;20030;-78
2022/05/07 06:10:05;;;;;;;54.55;40.75;;;12.20;99.90;;;;;;5084456;28;20115;-78
2022/05/07 06:12:31;;;;;;;52.42;40.08;;;12.20;99.90;;;;;;5091307;28;20024;-78
2022/05/07 06:14:57;;;;;;;45.10;37.30;;;12.30;99.90;;;;;;5070228;28;20436;-78
2022/05/07 06:17:31;;;;;;;41.55;35.85;;;12.40;99.90;;;;;;5065325;28;20104;-78
2022/05/07 06:19:57;;;;;;;42.67;36.05;;;12.40;99.90;;;;;;5079017;28;20040;-78
2022/05/07 06:22:22;;;;;;;42.92;35.95;;;12.50;99.90;;;;;;5080253;28;20598;-78
2022/05/07 06:27:46;;;;;;;44.42;36.45;;;12.50;99.90;;;;;;5030623;28;20041;-78
2022/05/07 06:30:11;;;;;;;39.28;34.25;;;12.60;99.90;;;;;;5038703;28;20399;-78
2022/05/07 06:32:40;;;;;;;38.25;34.00;;;12.60;99.90;;;;;;5087648;28;20100;-78
2022/05/07 06:35:06;;;;;;;39.35;34.40;;;12.60;99.90;;;;;;5093262;28;20042;-78
2022/05/07 06:37:34;;;;;;;41.42;33.88;;;12.60;99.90;;;;;;5085124;28;20036;-78
2022/05/07 06:40:00;;;;;;;40.58;31.73;;;12.60;99.90;;;;;;5087092;28;20055;-78
2022/05/07 06:42:26;;;;;;;36.97;31.90;;;12.70;99.90;;;;;;5094014;28;20026;-83
2022/05/07 06:44:51;;;;;;;39.65;32.58;;;12.70;99.90;;;;;;5083929;28;20099;-83
2022/05/07 06:47:17;;;;;;;34.17;30.48;;;12.70;99.90;;;;;;5091865;28;20066;-83
2022/05/07 06:49:43;;;;;;;33.72;29.08;;;12.80;99.90;;;;;;5072955;28;20077;-83
2022/05/07 06:52:09;;;;;;;34.03;29.65;;;12.90;99.90;;;;;;5092307;28;20108;-83
2022/05/07 06:54:35;;;;;;;32.17;27.25;;;13.00;99.90;;;;;;5092009;28;20084;-83
2022/05/07 06:57:03;;;;;;;31.10;27.10;;;13.10;99.90;;;;;;5093234;28;20457;-83
2022/05/07 06:59:31;;;;;;;26.88;23.98;;;13.30;99.90;;;;;;5093502;28;20482;-83
2022/05/07 07:01:57;;;;;;;31.45;26.70;;;13.50;99.90;;;;;;5093867;28;20012;-83
2022/05/07 07:04:23;;;;;;;25.30;22.60;;;13.60;99.90;;;;;;5094210;28;20415;-83
2022/05/07 07:06:50;;;;;;;23.33;20.92;;;13.80;99.90;;;;;;5092977;28;20024;-84
2022/05/07 07:09:16;;;;;;;24.20;21.60;;;13.90;99.90;;;;;;5073908;28;20082;-83
2022/05/07 07:11:41;;;;;;;23.60;21.10;;;14.00;99.90;;;;;;5056093;28;20446;-83
2022/05/07 07:14:07;;;;;;;21.40;19.10;;;14.10;99.90;;;;;;5073653;28;20035;-83
2022/05/07 07:16:33;;;;;;;21.05;18.95;;;14.10;99.90;;;;;;5073461;28;20056;-83
2022/05/07 07:18:59;;;;;;;21.60;18.67;;;14.10;99.90;;;;;;5073211;28;20052;-84
2022/05/07 07:21:24;;;;;;;21.17;19.00;;;14.20;99.90;;;;;;5073117;28;20021;-83
2022/05/07 07:23:50;;;;;;;22.30;20.00;;;14.10;99.90;;;;;;5066015;28;20068;-82
2022/05/07 07:26:15;;;;;;;22.17;19.88;;;14.10;99.90;;;;;;5088851;28;20028;-82
2022/05/07 07:28:41;;;;;;;22.15;19.85;;;14.10;99.90;;;;;;5088582;28;20085;-83
2022/05/07 07:31:08;;;;;;;19.27;17.23;;;14.10;99.90;;;;;;5093608;28;20024;-83
2022/05/07 07:33:34;;;;;;;23.38;19.40;;;14.10;99.90;;;;;;5076814;28;20469;-83
2022/05/07 07:36:00;;;;;;;22.10;19.77;;;14.10;99.90;;;;;;5071866;28;20103;-83
2022/05/07 07:38:26;;;;;;;20.35;18.25;;;14.00;99.90;;;;;;5072274;28;20107;-83
2022/05/07 07:40:52;;;;;;;23.05;18.58;;;14.00;99.90;;;;;;5092045;28;20024;-84
2022/05/07 07:43:18;;;;;;;22.58;19.23;;;13.90;99.90;;;;;;5090739;28;20016;-81
2022/05/07 07:48:30;;;;;;;22.58;20.25;;;13.90;99.90;;;;;;5089624;28;20040;-80
2022/05/07 07:50:55;;;;;;;22.70;20.02;;;13.80;99.90;;;;;;5089946;28;20031;-80
2022/05/07 07:53:24;;;;;;;22.40;20.10;;;13.70;99.90;;;;;;5089661;28;20099;-80
2022/05/07 07:55:51;;;;;;;22.90;19.38;;;13.70;99.90;;;;;;5082210;28;20140;-80
2022/05/07 07:58:17;;;;;;;22.17;19.77;;;13.70;99.90;;;;;;5084321;28;20028;-80
2022/05/07 08:00:44;;;;;;;23.80;21.27;;;13.80;99.90;;;;;;5088952;28;20024;-74
2022/05/07 08:03:12;;;;;;;22.98;20.42;;;13.80;99.90;;;;;;5077779;28;20480;-77
2022/05/07 08:05:39;;;;;;;23.67;19.50;;;13.80;99.90;;;;;;5082407;28;20020;-77
2022/05/07 08:13:39;;;;;;;25.60;21.98;;;13.70;99.90;;;;;;5087525;28;20074;-75
2022/05/07 08:16:07;;;;;;;27.17;22.75;;;13.60;99.90;;;;;;5092249;28;20451;-80
2022/05/07 08:18:33;;;;;;;27.50;24.70;;;13.50;99.90;;;;;;5092100;28;20063;-81
2022/05/07 08:20:59;;;;;;;35.17;28.45;;;13.40;99.90;;;;;;5092422;28;20047;-81
2022/05/07 08:23:25;;;;;;;40.25;32.67;;;13.20;99.90;;;;;;5055549;28;20490;-81
2022/05/07 08:25:51;;;;;;;31.90;28.50;;;13.10;99.90;;;;;;5072109;28;20070;-81
2022/05/07 08:28:17;;;;;;;28.23;25.23;;;13.00;99.90;;;;;;5067704;28;20166;-82
2022/05/07 08:30:43;;;;;;;26.65;23.83;;;12.90;99.90;;;;;;5071068;28;20119;-82
2022/05/07 08:33:09;;;;;;;25.13;22.45;;;12.80;99.90;;;;;;5088270;28;20043;-81
2022/05/07 08:35:34;;;;;;;27.23;23.73;;;12.80;99.90;;;;;;5090439;28;20080;-81
2022/05/07 08:38:00;;;;;;;23.95;21.35;;;12.80;99.90;;;;;;5090595;28;20126;-81
2022/05/07 08:40:28;;;;;;;25.25;22.50;;;12.80;99.90;;;;;;5101467;28;20012;-81
2022/05/07 08:42:55;;;;;;;22.77;20.10;;;12.90;99.90;;;;;;5096520;28;20055;-81
2022/05/07 08:45:21;;;;;;;23.17;20.73;;;12.90;99.90;;;;;;5100135;28;20031;-81
2022/05/07 08:47:51;;;;;;;24.27;21.65;;;13.00;99.90;;;;;;5095229;28;20031;-81
2022/05/07 08:50:17;;;;;;;25.00;22.48;;;13.00;99.90;;;;;;5104485;28;20053;-81
2022/05/07 08:52:44;;;;;;;24.20;21.60;;;13.10;99.90;;;;;;5105671;28;20023;-82
2022/05/07 08:55:12;;;;;;;23.30;19.58;;;13.20;99.90;;;;;;5105871;28;20027;-81
2022/05/07 08:57:42;;;;;;;21.48;17.85;;;13.20;99.90;;;;;;5088140;28;20027;-81
2022/05/07 09:00:09;;;;;;;21.02;18.33;;;13.30;99.90;;;;;;5100747;28;20016;-81
2022/05/07 09:02:46;;;;;;;19.55;17.42;;;13.30;99.90;;;;;;5082074;28;20380;-81
2022/05/07 09:05:15;;;;;;;22.38;19.98;;;13.30;99.90;;;;;;5107605;28;20020;-81
2022/05/07 09:07:52;;;;;;;21.70;18.73;;;13.30;99.90;;;;;;5098640;28;20024;-81
2022/05/07 09:10:19;;;;;;;22.85;19.40;;;13.40;99.90;;;;;;5099449;28;20120;-82
2022/05/07 09:12:45;;;;;;;20.45;18.45;;;13.40;99.90;;;;;;5104264;28;20722;-81
2022/05/07 09:15:10;;;;;;;22.40;20.05;;;13.30;99.90;;;;;;5081652;28;20210;-82
2022/05/07 09:17:38;;;;;;;24.20;21.73;;;13.30;99.90;;;;;;5097494;28;20028;-82
2022/05/07 09:20:16;;;;;;;22.50;20.10;;;13.20;99.90;;;;;;5097808;28;20028;-81
2022/05/07 09:22:49;;;;;;;22.75;20.40;;;13.10;99.90;;;;;;5103062;28;20496;-82
2022/05/07 09:25:20;;;;;;;23.10;20.42;;;13.00;99.90;;;;;;5086599;28;20039;-81
2022/05/07 09:27:46;;;;;;;25.50;20.63;;;12.90;99.90;;;;;;5088055;28;20110;-82
2022/05/07 09:30:12;;;;;;;24.17;21.50;;;12.90;99.90;;;;;;5088567;28;20028;-82
2022/05/07 09:32:39;;;;;;;23.13;20.65;;;12.90;99.90;;;;;;5078825;28;20078;-82
2022/05/07 09:38:03;;;;;;;23.23;20.83;;;12.80;99.90;;;;;;5116583;28;20058;-82
2022/05/07 09:40:29;;;;;;;22.08;19.88;;;12.80;99.90;;;;;;5109482;28;20498;-82
2022/05/07 09:42:57;;;;;;;22.63;20.23;;;12.80;99.90;;;;;;5109305;28;20110;-81
2022/05/07 09:45:26;;;;;;;24.40;21.80;;;12.80;99.90;;;;;;5106847;28;20044;-82
2022/05/07 09:47:51;;;;;;;24.52;22.08;;;12.90;99.90;;;;;;5100518;28;20024;-84
2022/05/07 09:50:23;;;;;;;21.65;19.45;;;13.00;99.90;;;;;;5083288;28;20028;-83
2022/05/07 09:58:19;;;;;;;13.80;12.40;;;13.10;99.90;;;;;;5096689;28;20036;-84
2022/05/07 10:01:10;;;;;;;13.88;12.38;;;13.20;99.90;;;;;;5095644;28;20270;-83
2022/05/07 10:04:14;;;;;;;13.32;12.02;;;13.30;99.90;;;;;;5078735;28;20020;-83
2022/05/07 10:07:17;;;;;;;17.23;13.27;;;13.40;99.90;;;;;;5095942;28;20012;-82
2022/05/07 10:10:02;;;;;;;13.13;11.82;;;13.60;99.90;;;;;;5088444;28;20048;-83
2022/05/07 10:12:29;;;;;;;14.77;13.15;;;13.90;99.90;;;;;;5076568;28;20055;-83
2022/05/07 10:15:09;;;;;;;13.90;12.50;;;14.00;99.90;;;;;;5095049;28;20024;-82
2022/05/07 10:17:35;;;;;;;14.13;12.73;;;14.10;99.90;;;;;;5076396;28;20024;-83
2022/05/07 10:20:09;;;;;;;14.18;12.75;;;14.30;99.90;;;;;;5093576;28;20020;-80
2022/05/07 10:22:36;;;;;;;14.98;12.60;;;14.40;99.90;;;;;;5093471;28;20016;-80
2022/05/07 10:25:04;;;;;;;14.98;13.43;;;14.60;99.90;;;;;;5092996;28;20020;-80
2022/05/07 10:27:32;;;;;;;14.68;13.27;;;14.60;99.90;;;;;;5094307;28;20075;-80
2022/05/07 10:30:09;;;;;;;14.35;12.85;;;14.60;99.90;;;;;;5094006;28;20020;-80
2022/05/07 10:32:57;;;;;;;15.63;14.05;;;14.70;99.90;;;;;;5093714;28;20054;-80
2022/05/07 10:35:44;;;;;;;16.38;14.68;;;14.80;99.90;;;;;;5093292;28;20103;-80
2022/05/07 10:38:15;;;;;;;17.23;15.43;;;14.90;99.90;;;;;;5092749;28;20027;-79
2022/05/07 10:40:53;;;;;;;17.98;16.08;;;14.90;99.90;;;;;;5093823;28;20031;-79
2022/05/07 10:43:39;;;;;;;16.83;15.23;;;14.90;99.90;;;;;;5084797;28;20020;-79
2022/05/07 10:46:15;;;;;;;16.70;14.90;;;14.70;99.90;;;;;;5087919;28;20020;-79
2022/05/07 10:48:59;;;;;;;17.83;15.88;;;14.60;99.90;;;;;;5073013;28;20471;-79
2022/05/07 10:51:29;;;;;;;17.48;15.68;;;14.50;99.90;;;;;;5088677;28;20028;-79
2022/05/07 10:54:00;;;;;;;16.25;14.57;;;14.50;99.90;;;;;;5094380;28;20481;-79
2022/05/07 10:56:27;;;;;;;17.52;15.73;;;14.40;99.90;;;;;;5095387;28;20101;-79
2022/05/07 10:58:55;;;;;;;16.38;14.60;;;14.40;99.90;;;;;;5091652;28;20016;-79
2022/05/07 11:01:22;;;;;;;18.42;16.63;;;14.30;99.90;;;;;;5075529;28;20097;-79
2022/05/07 11:03:48;;;;;;;17.08;15.27;;;14.40;99.90;;;;;;5093344;28;20461;-80
2022/05/07 11:06:15;;;;;;;15.75;14.23;;;14.40;99.90;;;;;;5093873;28;20032;-80
2022/05/07 11:08:52;;;;;;;16.80;15.00;;;14.40;99.90;;;;;;5092902;28;20028;-79
2022/05/07 11:11:18;;;;;;;17.40;15.70;;;14.50;99.90;;;;;;5092368;28;20043;-79
2022/05/07 11:13:49;;;;;;;19.27;15.13;;;14.70;99.90;;;;;;5093253;28;20020;-79
2022/05/07 11:16:16;;;;;;;17.83;16.13;;;14.80;99.90;;;;;;5074644;28;20036;-80
2022/05/07 11:18:45;;;;;;;17.52;15.73;;;15.00;99.90;;;;;;5093200;28;20024;-80
2022/05/07 11:21:12;;;;;;;15.77;14.18;;;15.10;99.90;;;;;;5074682;28;20031;-80
2022/05/07 11:23:43;;;;;;;17.05;14.02;;;15.30;99.90;;;;;;5074424;28;20020;-80
2022/05/07 11:26:17;;;;;;;15.82;14.32;;;15.30;99.90;;;;;;5092794;28;20020;-80
2022/05/07 11:28:44;;;;;;;16.35;14.75;;;15.40;99.90;;;;;;5092706;28;20035;-80
2022/05/07 11:31:12;;;;;;;15.13;13.52;;;15.30;99.90;;;;;;5080687;28;20017;-80
2022/05/07 11:33:38;;;;;;;13.82;12.43;;;15.20;99.90;;;;;;5072909;28;20032;-81
2022/05/07 11:36:08;;;;;;;10.98;9.35;;;15.10;99.90;;;;;;5072793;28;20044;-81
2022/05/07 11:38:35;;;;;;;10.60;9.60;;;14.90;99.90;;;;;;5076307;28;20421;-81
2022/05/07 11:41:14;;;;;;;11.07;9.88;;;14.80;99.90;;;;;;5087848;28;20440;-80
2022/05/07 11:46:25;;;;;;;9.10;7.25;;;14.60;99.90;;;;;;5072765;28;20587;-79
2022/05/07 11:48:51;;;;;;;7.38;6.57;;;14.50;99.90;;;;;;5053968;28;20037;-79
2022/05/07 11:51:25;;;;;;;6.55;5.43;;;14.50;99.90;;;;;;5060484;28;20112;-80
2022/05/07 11:53:51;;;;;;;6.20;5.60;;;14.50;99.90;;;;;;5091351;28;20499;-80
2022/05/07 11:56:17;;;;;;;10.25;9.10;;;14.40;99.90;;;;;;5102282;28;20028;-79
2022/05/07 11:58:49;;;;;;;24.85;21.35;;;14.50;99.90;;;;;;5092461;28;20032;-79
2022/05/07 12:01:21;;;;;;;11.30;7.68;;;14.60;99.90;;;;;;5092783;28;20063;-78
2022/05/07 12:03:50;;;;;;;9.02;7.95;;;14.70;99.90;;;;;;5092187;28;20099;-78
2022/05/07 12:06:30;;;;;;;9.38;8.48;;;14.90;99.90;;;;;;5091554;28;20059;-78
2022/05/07 12:08:56;;;;;;;8.32;7.40;;;15.00;99.90;;;;;;5091805;28;20063;-78
2022/05/07 12:11:23;;;;;;;11.23;9.40;;;15.10;99.90;;;;;;5074066;28;20059;-78
2022/05/07 12:13:49;;;;;;;9.13;7.47;;;15.20;99.90;;;;;;5088640;28;20055;-79
2022/05/07 12:19:00;;;;;;;10.00;8.98;;;15.20;99.90;;;;;;5088173;28;20027;-79
2022/05/07 12:29:54;;;;;;;9.57;8.55;;;15.70;99.90;;;;;;5073451;28;20122;-78
2022/05/07 12:32:22;;;;;;;12.40;9.57;;;15.80;99.90;;;;;;5077324;28;20159;-78
2022/05/07 12:34:48;;;;;;;15.68;14.07;;;16.00;99.90;;;;;;5095244;28;20016;-78
2022/05/07 12:37:15;;;;;;;9.55;8.65;;;16.20;99.90;;;;;;5076635;28;20115;-78
2022/05/07 12:39:41;;;;;;;7.82;6.93;;;16.20;99.90;;;;;;5077071;28;20020;-79
2022/05/07 12:42:09;;;;;;;8.02;7.22;;;16.40;99.90;;;;;;5095114;28;20048;-79
2022/05/07 12:44:34;;;;;;;6.60;5.38;;;16.40;99.90;;;;;;5095245;28;20099;-78
2022/05/07 12:47:00;;;;;;;15.63;11.75;;;16.40;99.90;;;;;;5077057;28;20139;-78
2022/05/07 12:49:27;;;;;;;20.45;13.95;;;16.40;99.90;;;;;;5095859;28;20020;-79
2022/05/07 12:51:53;;;;;;;6.20;4.57;;;16.50;99.90;;;;;;5093085;28;20380;-79
2022/05/07 12:54:19;;;;;;;35.47;25.42;;;16.60;99.90;;;;;;5087727;28;20100;-79
2022/05/07 12:56:46;;;;;;;6.40;5.80;;;16.60;99.90;;;;;;5092737;28;20024;-78
2022/05/07 12:59:12;;;;;;;5.55;5.03;;;16.70;99.90;;;;;;5072882;28;20103;-79
2022/05/07 13:01:40;;;;;;;5.88;4.85;;;16.70;99.90;;;;;;5078038;28;20059;-78
2022/05/07 13:04:06;;;;;;;6.55;5.85;;;16.70;99.90;;;;;;5096021;28;20031;-79
2022/05/07 13:06:32;;;;;;;12.68;10.15;;;16.80;99.90;;;;;;5078032;28;20020;-79
2022/05/07 13:09:00;;;;;;;5.35;4.82;;;16.80;99.90;;;;;;5074352;28;20036;-79